createdAt,value
2023-02-08T00:00:52.221Z,70.94
2023-02-08T00:01:53.960Z,71.17
2023-02-08T00:02:55.632Z,71.33
2023-02-08T00:03:57.265Z,71.89
2023-02-08T00:04:58.806Z,71.91
2023-02-08T00:06:00.358Z,71.77
2023-02-08T00:07:01.920Z,72.08
2023-02-08T00:08:03.544Z,71.89
2023-02-08T00:09:05.119Z,72.47
2023-02-08T00:10:07.165Z,71.71
2023-02-08T00:11:10.705Z,72.57
2023-02-08T00:12:12.270Z,72.83
2023-02-08T00:13:13.787Z,73.05
2023-02-08T00:14:15.353Z,73.39
2023-02-08T00:15:17.101Z,73.35
2023-02-08T00:16:19.000Z,72.91
2023-02-08T00:17:20.591Z,73.59
2023-02-08T00:18:22.934Z,73.04
2023-02-08T00:19:24.463Z,72.87
2023-02-08T00:20:26.032Z,73.05
2023-02-08T00:21:27.601Z,72.64
2023-02-08T00:22:29.188Z,73.06
2023-02-08T00:23:30.690Z,73.04
2023-02-08T00:24:33.308Z,72.64
2023-02-08T00:25:35.536Z,72.90
2023-02-08T00:26:37.516Z,72.83
2023-02-08T00:27:39.102Z,73.24
2023-02-08T00:28:41.093Z,73.28
2023-02-08T00:29:42.752Z,72.90
2023-02-08T00:30:44.630Z,73.37
2023-02-08T00:31:46.260Z,73.13
2023-02-08T00:32:47.874Z,73.38
2023-02-08T00:33:49.505Z,72.54
2023-02-08T00:34:51.165Z,72.79
2023-02-08T00:35:59.863Z,72.71
2023-02-08T00:37:01.672Z,72.37
2023-02-08T00:38:03.491Z,72.56
2023-02-08T00:39:05.055Z,73.02
2023-02-08T00:40:07.119Z,72.80
2023-02-08T00:41:09.077Z,73.06
2023-02-08T00:42:11.021Z,72.74
2023-02-08T00:43:12.644Z,72.64
2023-02-08T00:44:14.206Z,73.01
2023-02-08T00:45:15.726Z,73.24
2023-02-08T00:46:17.331Z,72.55
2023-02-08T00:47:18.952Z,71.64
2023-02-08T00:48:20.473Z,71.43
2023-02-08T00:49:22.006Z,72.29
2023-02-08T00:50:23.598Z,71.56
2023-02-08T00:51:25.248Z,71.58
2023-02-08T00:52:28.091Z,72.79
2023-02-08T00:53:30.666Z,72.85
2023-02-08T00:54:32.222Z,72.55
2023-02-08T00:55:33.774Z,72.07
2023-02-08T00:56:35.323Z,72.16
2023-02-08T00:57:36.868Z,72.10
2023-02-08T00:58:38.764Z,73.05
2023-02-08T00:59:40.366Z,72.63
2023-02-08T01:00:42.215Z,73.32
2023-02-08T01:01:43.965Z,74.43
2023-02-08T01:02:45.573Z,74.39
2023-02-08T01:03:47.852Z,73.64
2023-02-08T01:04:49.505Z,74.19
2023-02-08T01:05:51.089Z,73.95
2023-02-08T01:06:52.696Z,72.97
2023-02-08T01:07:54.247Z,72.70
2023-02-08T01:08:55.818Z,72.38
2023-02-08T01:09:57.383Z,72.39
2023-02-08T01:11:06.630Z,72.11
2023-02-08T01:12:08.314Z,71.55
2023-02-08T01:13:10.013Z,71.91
2023-02-08T01:14:11.582Z,71.49
2023-02-08T01:15:13.195Z,71.08
2023-02-08T01:16:17.768Z,71.03
2023-02-08T01:17:19.346Z,71.21
2023-02-08T01:18:20.917Z,70.81
2023-02-08T01:19:22.538Z,70.83
2023-02-08T01:20:24.947Z,70.70
2023-02-08T01:21:29.232Z,70.91
2023-02-08T01:22:30.851Z,71.07
2023-02-08T01:23:32.488Z,70.63
2023-02-08T01:24:34.131Z,70.20
2023-02-08T01:25:35.687Z,70.21
2023-02-08T01:26:37.764Z,70.48
2023-02-08T01:27:39.332Z,70.44
2023-02-08T01:28:41.403Z,70.51
2023-02-08T01:29:42.995Z,70.20
2023-02-08T01:30:44.514Z,70.40
2023-02-08T01:31:46.230Z,70.22
2023-02-08T01:32:47.842Z,70.51
2023-02-08T01:33:49.559Z,70.93
2023-02-08T01:34:51.183Z,70.70
2023-02-08T01:35:53.553Z,71.80
2023-02-08T01:36:55.126Z,71.97
2023-02-08T01:37:56.669Z,72.54
2023-02-08T01:38:58.307Z,72.84
2023-02-08T01:39:59.897Z,73.42
2023-02-08T01:41:02.785Z,73.53
2023-02-08T01:42:04.591Z,74.38
2023-02-08T01:43:23.699Z,74.56
2023-02-08T01:45:02.938Z,75.51
2023-02-08T01:46:04.732Z,75.66
2023-02-08T01:47:06.455Z,75.14
2023-02-08T01:48:14.488Z,75.20
2023-02-08T01:49:19.259Z,75.92
2023-02-08T01:50:23.526Z,75.87
2023-02-08T01:51:29.719Z,76.68
2023-02-08T01:52:31.607Z,77.17
2023-02-08T01:53:35.470Z,76.59
2023-02-08T01:54:43.416Z,76.74
2023-02-08T01:55:49.941Z,77.31
2023-02-08T01:56:52.266Z,77.65
2023-02-08T01:57:57.740Z,77.95
2023-02-08T01:59:01.830Z,77.57
2023-02-08T02:00:08.985Z,77.79
2023-02-08T02:01:11.778Z,78.01
2023-02-08T02:02:17.566Z,77.31
2023-02-08T02:03:22.263Z,77.48
2023-02-08T02:04:25.290Z,77.29
2023-02-08T02:05:34.082Z,76.24
2023-02-08T02:06:40.111Z,76.21
2023-02-08T02:07:41.875Z,76.88
2023-02-08T02:08:56.266Z,77.34
2023-02-08T02:10:06.849Z,77.90
2023-02-08T02:11:08.611Z,77.84
2023-02-08T02:12:11.477Z,77.35
2023-02-08T02:13:17.724Z,77.47
2023-02-08T02:14:20.538Z,77.93
2023-02-08T02:15:22.124Z,78.38
2023-02-08T02:16:23.769Z,78.48
2023-02-08T02:17:25.405Z,78.47
2023-02-08T02:18:29.857Z,78.42
2023-02-08T02:19:31.376Z,77.76
2023-02-08T02:21:22.670Z,78.07
2023-02-08T02:22:27.174Z,77.96
2023-02-08T02:23:43.908Z,79.12
2023-02-08T02:25:06.118Z,78.49
2023-02-08T02:26:38.347Z,78.79
2023-02-08T02:27:51.834Z,78.78
2023-02-08T02:29:31.555Z,79.00
2023-02-08T02:30:36.220Z,79.47
2023-02-08T02:31:43.675Z,78.56
2023-02-08T02:32:50.973Z,78.81
2023-02-08T02:34:20.424Z,78.64
2023-02-08T02:35:33.174Z,78.06
2023-02-08T02:37:03.555Z,77.24
2023-02-08T02:38:30.211Z,77.19
2023-02-08T02:39:55.033Z,77.66
2023-02-08T02:41:08.690Z,77.69
2023-02-08T02:42:35.432Z,77.87
2023-02-08T02:43:46.786Z,76.88
2023-02-08T02:44:57.516Z,77.05
2023-02-08T02:46:08.134Z,77.90
2023-02-08T02:47:17.978Z,78.07
2023-02-08T02:48:42.199Z,78.89
2023-02-08T02:49:50.756Z,78.59
2023-02-08T02:51:08.985Z,78.82
2023-02-08T02:52:19.598Z,79.02
2023-02-08T02:53:52.958Z,78.14
2023-02-08T02:54:58.811Z,78.51
2023-02-08T02:56:05.396Z,77.71
2023-02-08T02:57:10.466Z,77.72
2023-02-08T02:58:16.450Z,77.45
2023-02-08T02:59:19.689Z,77.26
2023-02-08T03:00:27.895Z,76.21
2023-02-08T03:01:30.223Z,75.88
2023-02-08T03:02:32.285Z,75.54
2023-02-08T03:03:35.392Z,74.40
2023-02-08T03:04:37.392Z,73.63
2023-02-08T03:05:38.980Z,73.63
2023-02-08T03:07:26.169Z,73.12
2023-02-08T03:08:58.601Z,73.35
2023-02-08T03:10:12.214Z,73.95
2023-02-08T03:11:16.838Z,73.37
2023-02-08T03:12:40.281Z,72.88
2023-02-08T03:13:52.749Z,73.52
2023-02-08T03:15:21.788Z,73.56
2023-02-08T03:16:53.252Z,74.16
2023-02-08T03:17:54.785Z,72.92
2023-02-08T03:19:07.880Z,72.70
2023-02-08T03:20:14.664Z,73.56
2023-02-08T03:21:34.298Z,73.53
2023-02-08T03:22:44.410Z,74.01
2023-02-08T03:24:16.574Z,73.91
2023-02-08T03:25:23.271Z,75.15
2023-02-08T03:26:42.202Z,74.48
2023-02-08T03:28:01.852Z,74.41
2023-02-08T03:29:32.559Z,76.00
2023-02-08T03:30:46.407Z,77.18
2023-02-08T03:31:56.197Z,77.32
2023-02-08T03:33:01.893Z,77.82
2023-02-08T03:34:08.610Z,77.52
2023-02-08T03:35:15.672Z,77.79
2023-02-08T03:36:19.948Z,77.92
2023-02-08T03:37:27.295Z,78.43
2023-02-08T03:38:37.486Z,78.17
2023-02-08T03:39:40.975Z,78.85
2023-02-08T03:40:47.776Z,78.39
2023-02-08T03:41:53.022Z,78.95
2023-02-08T03:42:57.994Z,79.19
2023-02-08T03:44:23.458Z,78.83
2023-02-08T03:45:46.849Z,78.69
2023-02-08T03:46:57.681Z,78.71
2023-02-08T03:48:01.729Z,78.33
2023-02-08T03:49:12.942Z,77.36
2023-02-08T03:50:20.347Z,77.06
2023-02-08T03:51:24.602Z,76.87
2023-02-08T03:52:28.234Z,76.39
2023-02-08T03:53:38.125Z,76.50
2023-02-08T03:54:49.197Z,75.79
2023-02-08T03:55:58.419Z,76.25
2023-02-08T03:57:05.272Z,75.31
2023-02-08T03:58:21.816Z,75.20
2023-02-08T03:59:30.845Z,74.59
2023-02-08T04:00:40.074Z,73.74
2023-02-08T04:01:46.939Z,73.10
2023-02-08T04:03:20.840Z,72.89
2023-02-08T04:04:24.706Z,72.25
2023-02-08T04:05:26.704Z,72.58
2023-02-08T04:06:28.886Z,71.67
2023-02-08T04:07:30.471Z,71.59
2023-02-08T04:08:32.089Z,71.08
2023-02-08T04:09:33.827Z,70.65
2023-02-08T04:10:35.427Z,70.59
2023-02-08T04:11:36.969Z,70.81
2023-02-08T04:12:38.555Z,70.85
2023-02-08T04:13:40.126Z,71.16
2023-02-08T04:14:41.682Z,71.75
2023-02-08T04:15:44.412Z,72.68
2023-02-08T04:16:46.047Z,72.01
2023-02-08T04:17:47.805Z,72.07
2023-02-08T04:18:49.307Z,72.77
2023-02-08T04:19:50.824Z,72.85
2023-02-08T04:20:52.362Z,72.93
2023-02-08T04:21:54.123Z,73.29
2023-02-08T04:22:55.713Z,73.66
2023-02-08T04:23:57.336Z,74.21
2023-02-08T04:24:59.408Z,73.53
2023-02-08T04:26:00.974Z,73.29
2023-02-08T04:27:04.434Z,73.37
2023-02-08T04:28:07.327Z,74.12
2023-02-08T04:29:08.875Z,74.06
2023-02-08T04:30:11.519Z,73.76
2023-02-08T04:31:13.147Z,74.66
2023-02-08T04:32:14.711Z,74.96
2023-02-08T04:33:16.879Z,74.18
2023-02-08T04:34:18.427Z,74.02
2023-02-08T04:35:20.041Z,73.99
2023-02-08T04:36:21.608Z,75.13
2023-02-08T04:37:23.172Z,74.73
2023-02-08T04:38:24.980Z,74.41
2023-02-08T04:39:26.625Z,74.92
2023-02-08T04:40:28.300Z,74.89
2023-02-08T04:41:29.904Z,74.62
2023-02-08T04:42:31.502Z,75.53
2023-02-08T04:43:33.032Z,74.77
2023-02-08T04:44:34.620Z,75.36
2023-02-08T04:45:36.536Z,75.10
2023-02-08T04:46:38.230Z,75.28
2023-02-08T04:47:39.735Z,75.86
2023-02-08T04:48:41.411Z,74.83
2023-02-08T04:49:43.059Z,75.81
2023-02-08T04:50:44.624Z,75.93
2023-02-08T04:51:46.206Z,75.50
2023-02-08T04:52:48.095Z,75.65
2023-02-08T04:53:49.603Z,75.21
2023-02-08T04:54:51.600Z,75.47
2023-02-08T04:55:53.295Z,75.13
2023-02-08T04:56:55.118Z,75.37
2023-02-08T04:57:56.682Z,74.76
2023-02-08T04:58:58.259Z,74.86
2023-02-08T05:00:00.524Z,75.05
2023-02-08T05:01:06.523Z,74.64
2023-02-08T05:02:08.413Z,74.85
2023-02-08T05:03:10.289Z,75.62
2023-02-08T05:04:11.865Z,74.26
2023-02-08T05:05:13.461Z,74.40
2023-02-08T05:06:15.057Z,74.34
2023-02-08T05:07:16.580Z,73.74
2023-02-08T05:08:18.096Z,74.40
2023-02-08T05:09:19.688Z,73.98
2023-02-08T05:10:21.476Z,74.68
2023-02-08T05:11:25.186Z,73.76
2023-02-08T05:12:26.799Z,73.84
2023-02-08T05:13:28.362Z,74.12
2023-02-08T05:14:29.939Z,73.98
2023-02-08T05:15:31.460Z,73.90
2023-02-08T05:16:33.073Z,77.55
2023-02-08T05:17:34.682Z,75.10
2023-02-08T05:18:38.667Z,73.30
2023-02-08T05:19:40.451Z,73.30
2023-02-08T05:20:42.301Z,73.06
2023-02-08T05:21:43.997Z,73.75
2023-02-08T05:22:45.546Z,72.65
2023-02-08T05:23:47.190Z,73.53
2023-02-08T05:24:48.807Z,72.31
2023-02-08T05:25:50.524Z,72.44
2023-02-08T05:26:52.284Z,71.81
2023-02-08T05:27:53.959Z,72.54
2023-02-08T05:28:55.524Z,72.02
2023-02-08T05:29:58.931Z,71.35
2023-02-08T05:31:07.791Z,71.61
2023-02-08T05:32:09.447Z,71.22
2023-02-08T05:33:11.043Z,71.23
2023-02-08T05:34:12.620Z,71.03
2023-02-08T05:35:14.171Z,70.83
2023-02-08T05:36:16.787Z,70.95
2023-02-08T05:37:18.457Z,71.95
2023-02-08T05:38:19.984Z,72.32
2023-02-08T05:39:21.508Z,72.33
2023-02-08T05:40:23.078Z,71.54
2023-02-08T05:41:24.952Z,70.75
2023-02-08T05:42:27.135Z,70.35
2023-02-08T05:43:28.778Z,71.51
2023-02-08T05:44:30.314Z,71.17
2023-02-08T05:45:31.861Z,71.74
2023-02-08T05:46:33.455Z,71.67
2023-02-08T05:47:35.096Z,71.71
2023-02-08T05:48:36.780Z,71.90
2023-02-08T05:49:38.326Z,71.57
2023-02-08T05:50:40.229Z,71.66
2023-02-08T05:51:41.882Z,72.02
2023-02-08T05:52:43.532Z,72.07
2023-02-08T05:53:45.683Z,72.00
2023-02-08T05:54:47.220Z,72.75
2023-02-08T05:55:48.789Z,72.05
2023-02-08T05:56:50.321Z,71.55
2023-02-08T05:57:51.861Z,73.23
2023-02-08T05:58:53.393Z,73.00
2023-02-08T05:59:55.002Z,72.88
2023-02-08T06:00:56.569Z,73.66
2023-02-08T06:01:58.070Z,73.13
2023-02-08T06:02:59.605Z,74.44
2023-02-08T06:04:01.268Z,73.39
2023-02-08T06:05:02.810Z,74.47
2023-02-08T06:06:05.152Z,74.27
2023-02-08T06:07:06.725Z,73.73
2023-02-08T06:08:08.731Z,73.67
2023-02-08T06:09:10.520Z,73.03
2023-02-08T06:10:12.158Z,74.02
2023-02-08T06:11:13.850Z,73.62
2023-02-08T06:12:15.749Z,73.11
2023-02-08T06:13:17.399Z,73.82
2023-02-08T06:14:19.040Z,72.85
2023-02-08T06:15:20.593Z,73.63
2023-02-08T06:16:22.335Z,73.13
2023-02-08T06:17:23.925Z,72.35
2023-02-08T06:18:25.520Z,72.69
2023-02-08T06:19:27.168Z,72.85
2023-02-08T06:20:28.779Z,72.41
2023-02-08T06:21:30.319Z,72.32
2023-02-08T06:22:33.854Z,72.14
2023-02-08T06:23:38.041Z,72.70
2023-02-08T06:24:39.831Z,71.67
2023-02-08T06:25:41.370Z,71.36
2023-02-08T06:26:44.080Z,72.25
2023-02-08T06:27:45.661Z,71.06
2023-02-08T06:28:47.272Z,71.44
2023-02-08T06:29:48.907Z,71.52
2023-02-08T06:30:51.287Z,71.55
2023-02-08T06:31:53.455Z,71.41
2023-02-08T06:32:55.192Z,72.27
2023-02-08T06:33:56.725Z,71.42
2023-02-08T06:34:58.486Z,70.91
2023-02-08T06:36:00.079Z,71.32
2023-02-08T06:37:02.340Z,70.24
2023-02-08T06:38:03.873Z,69.92
2023-02-08T06:39:05.472Z,69.47
2023-02-08T06:40:08.273Z,70.36
2023-02-08T06:41:10.934Z,70.62
2023-02-08T06:42:12.836Z,69.99
2023-02-08T06:43:15.214Z,70.12
2023-02-08T06:44:16.931Z,70.02
2023-02-08T06:45:18.811Z,69.99
2023-02-08T06:46:20.440Z,70.43
2023-02-08T06:47:23.023Z,69.37
2023-02-08T06:48:24.547Z,69.28
2023-02-08T06:49:26.134Z,69.58
2023-02-08T06:50:27.707Z,68.28
2023-02-08T06:51:29.271Z,77.72
2023-02-08T06:52:32.444Z,73.63
2023-02-08T06:53:34.267Z,70.06
2023-02-08T06:54:35.884Z,68.28
2023-02-08T06:55:37.481Z,68.25
2023-02-08T06:56:39.001Z,67.10
2023-02-08T06:57:40.571Z,67.07
2023-02-08T06:58:42.102Z,68.88
2023-02-08T06:59:43.663Z,68.07
2023-02-08T07:00:45.573Z,67.17
2023-02-08T07:01:47.120Z,67.47
2023-02-08T07:02:48.715Z,67.41
2023-02-08T07:03:50.280Z,65.76
2023-02-08T07:04:51.880Z,65.59
2023-02-08T07:06:04.447Z,65.50
2023-02-08T07:07:06.838Z,65.42
2023-02-08T07:08:08.443Z,64.95
2023-02-08T07:09:09.976Z,64.00
2023-02-08T07:10:11.581Z,63.78
2023-02-08T07:11:17.124Z,63.49
2023-02-08T07:12:18.727Z,63.86
2023-02-08T07:13:20.287Z,64.08
2023-02-08T07:14:21.805Z,63.94
2023-02-08T07:15:23.504Z,63.62
2023-02-08T07:16:25.133Z,62.88
2023-02-08T07:17:26.726Z,61.76
2023-02-08T07:18:28.293Z,61.09
2023-02-08T07:19:30.194Z,61.29
2023-02-08T07:20:31.823Z,61.07
2023-02-08T07:21:33.383Z,60.62
2023-02-08T07:22:35.077Z,60.08
2023-02-08T07:23:36.661Z,60.78
2023-02-08T07:24:41.487Z,60.17
2023-02-08T07:25:43.043Z,59.35
2023-02-08T07:26:44.613Z,58.58
2023-02-08T07:27:46.200Z,59.04
2023-02-08T07:28:47.780Z,58.49
2023-02-08T07:29:49.335Z,58.69
2023-02-08T07:30:50.967Z,58.46
2023-02-08T07:31:52.576Z,57.55
2023-02-08T07:32:54.207Z,57.96
2023-02-08T07:33:55.763Z,57.86
2023-02-08T07:34:57.378Z,58.03
2023-02-08T07:35:58.962Z,59.31
2023-02-08T07:37:00.642Z,58.38
2023-02-08T07:38:02.182Z,58.21
2023-02-08T07:39:04.146Z,57.79
2023-02-08T07:40:06.027Z,57.91
2023-02-08T07:41:10.502Z,57.99
2023-02-08T07:42:12.241Z,57.08
2023-02-08T07:43:13.794Z,57.44
2023-02-08T07:44:15.502Z,57.27
2023-02-08T07:45:17.173Z,58.57
2023-02-08T07:46:21.195Z,56.59
2023-02-08T07:47:22.776Z,57.39
2023-02-08T07:48:24.465Z,58.31
2023-02-08T07:49:26.066Z,57.39
2023-02-08T07:50:27.706Z,57.08
2023-02-08T07:51:29.219Z,55.73
2023-02-08T07:52:30.833Z,54.94
2023-02-08T07:53:32.885Z,55.16
2023-02-08T07:54:34.451Z,55.93
2023-02-08T07:55:35.986Z,55.42
2023-02-08T07:56:37.614Z,55.09
2023-02-08T07:57:39.170Z,55.64
2023-02-08T07:58:40.704Z,55.60
2023-02-08T07:59:42.261Z,55.61
2023-02-08T08:00:43.831Z,57.21
2023-02-08T08:01:45.644Z,55.36
2023-02-08T08:02:47.321Z,55.50
2023-02-08T08:03:50.119Z,55.05
2023-02-08T08:04:54.151Z,55.69
2023-02-08T08:05:55.726Z,56.08
2023-02-08T08:06:57.285Z,56.62
2023-02-08T08:07:58.851Z,56.50
2023-02-08T08:09:00.773Z,56.90
2023-02-08T08:10:02.523Z,58.50
2023-02-08T08:11:04.125Z,57.74
2023-02-08T08:12:05.944Z,58.29
2023-02-08T08:13:07.536Z,58.46
2023-02-08T08:14:09.229Z,58.57
2023-02-08T08:15:10.981Z,57.34
2023-02-08T08:16:13.301Z,58.07
2023-02-08T08:17:14.853Z,58.05
2023-02-08T08:18:16.864Z,58.76
2023-02-08T08:19:18.429Z,58.37
2023-02-08T08:20:20.557Z,58.25
2023-02-08T08:21:22.157Z,59.01
2023-02-08T08:22:23.723Z,57.75
2023-02-08T08:23:25.398Z,58.97
2023-02-08T08:24:26.972Z,58.50
2023-02-08T08:25:28.742Z,58.50
2023-02-08T08:26:30.383Z,58.57
2023-02-08T08:27:32.249Z,59.90
2023-02-08T08:28:34.108Z,60.65
2023-02-08T08:29:37.422Z,60.97
2023-02-08T08:30:43.415Z,61.26
2023-02-08T08:31:45.136Z,61.54
2023-02-08T08:32:46.850Z,61.54
2023-02-08T08:33:49.202Z,61.77
2023-02-08T08:34:50.725Z,60.66
2023-02-08T08:35:52.280Z,61.18
2023-02-08T08:36:53.842Z,61.19
2023-02-08T08:37:55.376Z,61.17
2023-02-08T08:38:56.950Z,61.33
2023-02-08T08:39:58.674Z,60.96
2023-02-08T08:41:00.241Z,61.23
2023-02-08T08:42:04.088Z,61.06
2023-02-08T08:43:05.719Z,60.66
2023-02-08T08:44:07.300Z,60.84
2023-02-08T08:45:09.405Z,61.19
2023-02-08T08:46:11.320Z,60.31
2023-02-08T08:47:12.902Z,59.52
2023-02-08T08:48:14.461Z,60.47
2023-02-08T08:49:16.081Z,60.36
2023-02-08T08:50:17.651Z,58.76
2023-02-08T08:51:19.236Z,59.83
2023-02-08T08:52:20.794Z,59.43
2023-02-08T08:53:22.395Z,59.95
2023-02-08T08:54:24.185Z,58.99
2023-02-08T08:55:26.260Z,57.05
2023-02-08T08:56:27.882Z,57.07
2023-02-08T08:57:29.452Z,58.13
2023-02-08T08:58:31.027Z,56.48
2023-02-08T08:59:33.239Z,56.78
2023-02-08T09:00:34.812Z,57.36
2023-02-08T09:01:36.507Z,57.36
2023-02-08T09:02:38.103Z,56.32
2023-02-08T09:03:39.668Z,56.38
2023-02-08T09:04:41.503Z,56.55
2023-02-08T09:05:43.060Z,56.92
2023-02-08T09:06:44.625Z,57.80
2023-02-08T09:07:46.178Z,56.74
2023-02-08T09:08:49.272Z,57.19
2023-02-08T09:09:52.335Z,57.25
2023-02-08T09:10:53.908Z,57.12
2023-02-08T09:11:55.418Z,56.45
2023-02-08T09:12:58.983Z,56.95
2023-02-08T09:14:04.668Z,56.28
2023-02-08T09:15:06.837Z,57.35
2023-02-08T09:16:17.928Z,57.30
2023-02-08T09:17:19.668Z,57.23
2023-02-08T09:18:21.237Z,54.56
2023-02-08T09:19:22.782Z,55.62
2023-02-08T09:20:24.685Z,54.42
2023-02-08T09:21:26.333Z,55.88
2023-02-08T09:22:27.903Z,54.89
2023-02-08T09:23:29.418Z,54.80
2023-02-08T09:24:30.993Z,54.90
2023-02-08T09:25:33.401Z,52.50
2023-02-08T09:26:35.357Z,52.68
2023-02-08T09:27:36.971Z,52.04
2023-02-08T09:28:39.173Z,52.77
2023-02-08T09:29:40.841Z,52.00
2023-02-08T09:30:42.799Z,52.15
2023-02-08T09:31:44.711Z,52.18
2023-02-08T09:32:46.435Z,52.58
2023-02-08T09:33:48.649Z,51.56
2023-02-08T09:34:50.233Z,52.00
2023-02-08T09:35:51.768Z,52.27
2023-02-08T09:36:53.367Z,51.63
2023-02-08T09:37:57.811Z,51.20
2023-02-08T09:39:04.928Z,52.12
2023-02-08T09:40:06.765Z,52.70
2023-02-08T09:41:29.348Z,52.04
2023-02-08T09:42:47.215Z,50.57
2023-02-08T09:43:51.615Z,50.71
2023-02-08T09:45:19.747Z,50.89
2023-02-08T09:46:24.835Z,50.96
2023-02-08T09:47:36.570Z,50.95
2023-02-08T09:48:40.755Z,51.09
2023-02-08T09:50:05.001Z,50.54
2023-02-08T09:51:16.112Z,50.65
2023-02-08T09:52:23.133Z,50.44
2023-02-08T09:53:35.881Z,51.54
2023-02-08T09:54:43.373Z,49.95
2023-02-08T09:55:49.597Z,48.45
2023-02-08T09:56:52.911Z,49.59
2023-02-08T09:57:57.981Z,49.11
2023-02-08T09:59:01.966Z,49.51
2023-02-08T10:00:19.317Z,49.61
2023-02-08T10:01:29.988Z,49.47
2023-02-08T10:02:33.932Z,50.38
2023-02-08T10:03:44.213Z,50.44
2023-02-08T10:05:21.553Z,49.82
2023-02-08T10:06:23.231Z,49.60
2023-02-08T10:07:30.614Z,49.72
2023-02-08T10:08:35.623Z,49.27
2023-02-08T10:09:37.575Z,49.18
2023-02-08T10:10:56.327Z,49.09
2023-02-08T10:12:17.484Z,48.59
2023-02-08T10:13:42.243Z,48.87
2023-02-08T10:15:05.658Z,48.75
2023-02-08T10:16:25.762Z,49.31
2023-02-08T10:17:45.267Z,49.72
2023-02-08T10:19:19.818Z,47.94
2023-02-08T10:20:33.446Z,49.70
2023-02-08T10:22:12.333Z,49.48
2023-02-08T10:23:32.324Z,48.61
2023-02-08T10:24:42.119Z,48.93
2023-02-08T10:25:53.003Z,49.43
2023-02-08T10:27:22.610Z,48.99
2023-02-08T10:28:54.056Z,49.42
2023-02-08T10:30:19.136Z,48.55
2023-02-08T10:31:30.188Z,47.89
2023-02-08T10:32:57.662Z,48.69
2023-02-08T10:34:03.811Z,49.13
2023-02-08T10:35:14.274Z,48.13
2023-02-08T10:36:20.289Z,46.63
2023-02-08T10:37:34.033Z,46.33
2023-02-08T10:38:46.510Z,46.92
2023-02-08T10:39:52.407Z,48.13
2023-02-08T10:40:58.384Z,46.82
2023-02-08T10:42:00.466Z,47.87
2023-02-08T10:43:32.886Z,46.85
2023-02-08T10:44:44.885Z,46.96
2023-02-08T10:45:56.737Z,47.67
2023-02-08T10:47:20.042Z,47.32
2023-02-08T10:49:02.940Z,45.66
2023-02-08T10:50:44.212Z,45.84
2023-02-08T10:51:58.801Z,45.91
2023-02-08T10:53:04.439Z,44.83
2023-02-08T10:54:06.065Z,45.28
2023-02-08T10:55:19.343Z,43.73
2023-02-08T10:56:30.020Z,45.10
2023-02-08T10:57:35.558Z,44.00
2023-02-08T10:58:40.248Z,44.06
2023-02-08T11:00:27.038Z,44.39
2023-02-08T11:01:30.816Z,43.58
2023-02-08T11:02:38.804Z,48.76
2023-02-08T11:04:01.832Z,44.86
2023-02-08T11:05:07.690Z,43.41
2023-02-08T11:06:27.404Z,42.72
2023-02-08T11:07:30.007Z,43.08
2023-02-08T11:08:31.684Z,41.85
2023-02-08T11:09:33.225Z,42.97
2023-02-08T11:10:39.606Z,43.38
2023-02-08T11:11:43.132Z,43.57
2023-02-08T11:13:15.010Z,44.78
2023-02-08T11:14:20.321Z,42.51
2023-02-08T11:15:25.468Z,43.15
2023-02-08T11:16:29.646Z,41.98
2023-02-08T11:17:33.986Z,40.80
2023-02-08T11:18:47.324Z,40.98
2023-02-08T11:19:50.762Z,41.77
2023-02-08T11:20:56.199Z,41.28
2023-02-08T11:22:02.033Z,42.09
2023-02-08T11:23:22.032Z,42.03
2023-02-08T11:24:43.215Z,40.86
2023-02-08T11:25:44.937Z,41.39
2023-02-08T11:26:46.636Z,40.63
2023-02-08T11:27:51.237Z,42.18
2023-02-08T11:29:25.181Z,40.43
2023-02-08T11:30:27.019Z,40.85
2023-02-08T11:31:29.551Z,40.15
2023-02-08T11:32:40.367Z,39.89
2023-02-08T11:34:09.349Z,41.71
2023-02-08T11:35:27.265Z,40.32
2023-02-08T11:36:32.550Z,42.40
2023-02-08T11:37:37.732Z,41.86
2023-02-08T11:38:51.190Z,41.65
2023-02-08T11:40:00.893Z,41.25
2023-02-08T11:41:20.998Z,41.52
2023-02-08T11:42:27.894Z,40.56
2023-02-08T11:43:33.232Z,41.10
2023-02-08T11:44:43.584Z,41.41
2023-02-08T11:45:49.968Z,40.44
2023-02-08T11:46:54.162Z,40.35
2023-02-08T11:47:56.198Z,41.49
2023-02-08T11:48:57.848Z,41.61
2023-02-08T11:50:01.911Z,41.59
2023-02-08T11:51:03.907Z,42.36
2023-02-08T11:52:18.776Z,40.41
2023-02-08T11:53:47.843Z,42.44
2023-02-08T11:54:49.433Z,41.66
2023-02-08T11:56:06.940Z,40.82
2023-02-08T11:57:21.279Z,39.82
2023-02-08T11:58:26.107Z,39.43
2023-02-08T11:59:29.116Z,40.01
2023-02-08T12:00:35.215Z,40.01
2023-02-08T12:01:42.172Z,39.86
2023-02-08T12:02:44.204Z,39.71
2023-02-08T12:03:48.171Z,39.80
2023-02-08T12:04:49.859Z,40.76
2023-02-08T12:06:03.255Z,38.62
2023-02-08T12:07:24.834Z,39.30
2023-02-08T12:09:02.950Z,39.02
2023-02-08T12:10:12.314Z,39.29
2023-02-08T12:11:45.973Z,38.14
2023-02-08T12:13:12.099Z,39.38
2023-02-08T12:14:25.352Z,39.17
2023-02-08T12:15:58.644Z,39.43
2023-02-08T12:17:34.191Z,38.17
2023-02-08T12:18:48.764Z,38.78
2023-02-08T12:20:09.078Z,39.25
2023-02-08T12:21:26.678Z,38.42
2023-02-08T12:22:30.966Z,38.71
2023-02-08T12:23:41.538Z,38.90
2023-02-08T12:25:20.286Z,38.27
2023-02-08T12:26:40.702Z,38.07
2023-02-08T12:28:07.163Z,38.51
2023-02-08T12:29:54.201Z,38.38
2023-02-08T12:31:17.660Z,39.26
2023-02-08T12:32:21.922Z,38.50
2023-02-08T12:34:08.142Z,39.43
2023-02-08T12:35:39.916Z,39.33
2023-02-08T12:37:12.466Z,38.96
2023-02-08T12:38:57.659Z,37.98
2023-02-08T12:40:45.958Z,37.65
2023-02-08T12:42:17.645Z,38.44
2023-02-08T12:43:51.664Z,39.18
2023-02-08T12:45:31.746Z,37.20
2023-02-08T12:46:44.302Z,36.85
2023-02-08T12:48:06.202Z,36.93
2023-02-08T12:49:42.913Z,36.65
2023-02-08T12:51:22.895Z,37.70
2023-02-08T12:52:29.731Z,38.26
2023-02-08T12:53:37.764Z,37.96
2023-02-08T12:54:55.464Z,37.82
2023-02-08T12:56:01.908Z,37.97
2023-02-08T12:57:06.519Z,38.82
2023-02-08T12:58:29.522Z,38.79
2023-02-08T12:59:40.392Z,38.97
2023-02-08T13:00:43.312Z,39.07
2023-02-08T13:01:51.192Z,39.26
2023-02-08T13:03:20.330Z,38.57
2023-02-08T13:04:33.099Z,39.45
2023-02-08T13:05:39.662Z,39.81
2023-02-08T13:06:43.987Z,39.41
2023-02-08T13:07:49.300Z,39.81
2023-02-08T13:09:17.510Z,39.21
2023-02-08T13:10:29.469Z,39.09
2023-02-08T13:11:50.059Z,39.79
2023-02-08T13:12:56.078Z,39.47
2023-02-08T13:14:03.274Z,39.42
2023-02-08T13:15:31.008Z,40.32
2023-02-08T13:16:39.884Z,38.96
2023-02-08T13:17:53.457Z,38.01
2023-02-08T13:19:05.451Z,38.67
2023-02-08T13:20:37.715Z,39.22
2023-02-08T13:21:43.202Z,39.58
2023-02-08T13:22:46.393Z,39.33
2023-02-08T13:23:52.813Z,40.06
2023-02-08T13:25:11.663Z,40.14
2023-02-08T13:26:17.468Z,38.88
2023-02-08T13:27:23.024Z,40.06
2023-02-08T13:28:26.229Z,39.97
2023-02-08T13:29:29.780Z,39.44
2023-02-08T13:30:33.750Z,40.79
2023-02-08T13:31:41.164Z,39.20
2023-02-08T13:32:45.672Z,40.21
2023-02-08T13:34:01.169Z,39.72
2023-02-08T13:35:14.517Z,40.02
2023-02-08T13:36:21.208Z,40.06
2023-02-08T13:37:31.284Z,40.22
2023-02-08T13:38:35.593Z,39.66
2023-02-08T13:39:41.080Z,40.67
2023-02-08T13:40:43.518Z,39.83
2023-02-08T13:41:52.021Z,40.30
2023-02-08T13:43:05.827Z,39.69
2023-02-08T13:44:18.403Z,40.57
2023-02-08T13:45:27.152Z,40.01
2023-02-08T13:46:37.377Z,39.88
2023-02-08T13:47:49.316Z,41.05
2023-02-08T13:48:54.612Z,41.05
2023-02-08T13:49:58.574Z,40.83
2023-02-08T13:51:00.904Z,40.67
2023-02-08T13:52:02.598Z,41.13
2023-02-08T13:53:05.895Z,41.10
2023-02-08T13:54:12.761Z,41.65
2023-02-08T13:55:33.377Z,41.84
2023-02-08T13:56:37.763Z,41.67
2023-02-08T13:58:22.059Z,41.96
2023-02-08T13:59:35.472Z,42.08
2023-02-08T14:00:37.518Z,41.74
2023-02-08T14:02:19.153Z,41.54
2023-02-08T14:03:29.146Z,41.52
2023-02-08T14:04:34.543Z,41.76
2023-02-08T14:05:58.593Z,41.25
2023-02-08T14:07:12.097Z,40.73
2023-02-08T14:08:27.638Z,41.68
2023-02-08T14:09:38.269Z,41.92
2023-02-08T14:10:45.439Z,43.24
2023-02-08T14:11:49.717Z,42.55
2023-02-08T14:12:56.559Z,42.14
2023-02-08T14:14:06.159Z,43.20
2023-02-08T14:15:16.724Z,43.32
2023-02-08T14:16:33.574Z,43.93
2023-02-08T14:17:36.215Z,44.50
2023-02-08T14:18:37.822Z,44.40
2023-02-08T14:19:42.973Z,45.35
2023-02-08T14:20:59.549Z,44.99
2023-02-08T14:22:27.316Z,45.09
2023-02-08T14:23:31.484Z,45.34